createdAt,value
2022-11-24T00:01:30.333Z,14.80
2022-11-24T00:04:00.126Z,14.97
2022-11-24T00:06:29.193Z,16.33
2022-11-24T00:08:59.364Z,23.60
2022-11-24T00:11:29.186Z,20.40
2022-11-24T00:13:58.923Z,20.50
2022-11-24T00:16:28.814Z,22.90
2022-11-24T00:18:59.035Z,24.37
2022-11-24T00:21:28.677Z,23.90
2022-11-24T00:23:59.125Z,20.10
2022-11-24T00:26:29.276Z,20.17
2022-11-24T00:28:58.961Z,18.80
2022-11-24T00:31:28.836Z,18.37
2022-11-24T00:33:58.810Z,18.10
2022-11-24T00:36:28.670Z,18.43
2022-11-24T00:38:59.769Z,18.53
2022-11-24T00:41:29.397Z,23.00
2022-11-24T00:43:58.091Z,24.27
2022-11-24T00:46:27.042Z,19.80
2022-11-24T00:48:55.403Z,31.37
2022-11-24T00:51:26.578Z,25.33
2022-11-24T00:53:56.508Z,21.83
2022-11-24T00:56:26.764Z,26.47
2022-11-24T00:58:55.111Z,21.10
2022-11-24T01:01:25.540Z,22.53
2022-11-24T01:03:54.997Z,18.80
2022-11-24T01:06:24.677Z,18.50
2022-11-24T01:08:53.395Z,20.00
2022-11-24T01:11:23.673Z,19.07
2022-11-24T01:13:55.803Z,19.80
2022-11-24T01:16:25.988Z,17.83
2022-11-24T01:18:54.760Z,22.30
2022-11-24T01:21:23.517Z,17.33
2022-11-24T01:23:51.921Z,15.90
2022-11-24T01:26:22.190Z,19.43
2022-11-24T01:28:56.440Z,18.10
2022-11-24T01:31:25.565Z,22.23
2022-11-24T01:33:54.167Z,18.23
2022-11-24T01:36:22.817Z,18.03
2022-11-24T01:38:51.411Z,17.53
2022-11-24T01:41:21.870Z,20.00
2022-11-24T01:43:51.027Z,19.77
2022-11-24T01:46:24.188Z,15.27
2022-11-24T01:48:56.416Z,18.57
2022-11-24T01:51:26.784Z,14.57
2022-11-24T01:53:58.214Z,11.80
2022-11-24T01:56:27.003Z,15.37
2022-11-24T01:58:58.418Z,13.93
2022-11-24T02:01:29.389Z,18.30
2022-11-24T02:03:58.122Z,22.03
2022-11-24T02:06:28.799Z,21.50
2022-11-24T02:09:00.310Z,17.80
2022-11-24T02:11:32.241Z,19.70
2022-11-24T02:14:00.872Z,19.63
2022-11-24T02:16:31.023Z,17.77
2022-11-24T02:18:59.292Z,17.00
2022-11-24T02:21:27.573Z,13.90
2022-11-24T02:23:59.191Z,16.83
2022-11-24T02:26:41.004Z,14.33
2022-11-24T02:29:10.465Z,12.03
2022-11-24T02:31:39.153Z,12.83
2022-11-24T02:34:07.473Z,13.60
2022-11-24T02:36:35.805Z,11.50
2022-11-24T02:39:04.393Z,12.80
2022-11-24T02:41:32.696Z,11.70
2022-11-24T02:44:03.154Z,8.73
2022-11-24T02:46:31.503Z,16.97
2022-11-24T02:49:02.380Z,13.20
2022-11-24T02:51:30.632Z,14.40
2022-11-24T02:53:58.941Z,14.13
2022-11-24T02:56:27.352Z,13.20
2022-11-24T02:58:55.645Z,16.90
2022-11-24T03:01:25.400Z,12.97
2022-11-24T03:03:53.730Z,15.63
2022-11-24T03:06:22.104Z,13.40
2022-11-24T03:08:50.357Z,16.17
2022-11-24T03:11:18.646Z,15.97
2022-11-24T03:13:46.968Z,15.77
2022-11-24T03:16:15.318Z,16.97
2022-11-24T03:18:45.543Z,15.27
2022-11-24T03:21:13.865Z,14.60
2022-11-24T03:23:42.189Z,16.50
2022-11-24T03:26:11.652Z,14.00
2022-11-24T03:28:40.096Z,14.90
2022-11-24T03:31:08.814Z,14.50
2022-11-24T03:33:37.579Z,13.50
2022-11-24T03:36:08.725Z,12.43
2022-11-24T03:38:37.056Z,14.70
2022-11-24T03:41:05.553Z,14.07
2022-11-24T03:43:35.925Z,12.03
2022-11-24T03:46:07.495Z,12.60
2022-11-24T03:48:35.928Z,12.87
2022-11-24T03:51:04.525Z,16.20
2022-11-24T03:53:34.976Z,13.03
2022-11-24T03:56:03.942Z,12.80
2022-11-24T03:58:32.358Z,14.80
2022-11-24T04:01:00.678Z,14.63
2022-11-24T04:03:29.086Z,16.03
2022-11-24T04:05:57.482Z,14.97
2022-11-24T04:08:25.790Z,13.17
2022-11-24T04:10:55.808Z,13.80
2022-11-24T04:13:24.695Z,15.43
2022-11-24T04:15:53.295Z,14.80
2022-11-24T04:18:22.098Z,18.63
2022-11-24T04:20:51.170Z,19.07
2022-11-24T04:23:19.674Z,17.50
2022-11-24T04:25:48.014Z,18.77
2022-11-24T04:28:17.670Z,21.40
2022-11-24T04:30:46.020Z,18.40
2022-11-24T04:33:14.505Z,17.37
2022-11-24T04:35:42.942Z,16.67
2022-11-24T04:38:11.248Z,19.07
2022-11-24T04:40:39.510Z,17.17
2022-11-24T04:43:08.359Z,17.27
2022-11-24T04:45:38.041Z,21.30
2022-11-24T04:48:06.868Z,17.60
2022-11-24T04:50:35.211Z,19.10
2022-11-24T04:53:03.500Z,17.20
2022-11-24T04:55:32.664Z,19.70
2022-11-24T04:58:01.092Z,17.20
2022-11-24T05:00:29.393Z,17.20
2022-11-24T05:02:59.138Z,14.97
2022-11-24T05:05:27.503Z,15.17
2022-11-24T05:07:56.408Z,18.10
2022-11-24T05:10:36.426Z,14.97
2022-11-24T05:13:06.199Z,15.27
2022-11-24T05:15:34.525Z,16.23
2022-11-24T05:18:07.182Z,15.83
2022-11-24T05:20:36.003Z,15.87
2022-11-24T05:23:05.088Z,15.03
2022-11-24T05:25:33.472Z,14.70
2022-11-24T05:28:02.799Z,17.57
2022-11-24T05:30:31.439Z,14.13
2022-11-24T05:33:00.237Z,14.70
2022-11-24T05:35:31.383Z,14.83
2022-11-24T05:38:01.086Z,14.20
2022-11-24T05:40:29.573Z,15.00
2022-11-24T05:42:57.860Z,14.00
2022-11-24T05:45:26.162Z,15.13
2022-11-24T05:47:54.470Z,14.00
2022-11-24T05:50:23.955Z,13.60
2022-11-24T05:52:53.541Z,12.20
2022-11-24T05:55:21.836Z,14.53
2022-11-24T05:57:50.206Z,11.90
2022-11-24T06:00:20.302Z,12.70
2022-11-24T06:02:49.758Z,12.50
2022-11-24T06:05:19.145Z,12.87
2022-11-24T06:07:47.734Z,12.87
2022-11-24T06:10:18.498Z,12.77
2022-11-24T06:12:50.823Z,12.50
2022-11-24T06:15:19.659Z,10.43
2022-11-24T06:17:54.112Z,11.83
2022-11-24T06:20:24.388Z,12.37
2022-11-24T06:22:54.267Z,11.60
2022-11-24T06:25:24.141Z,12.90
2022-11-24T06:27:52.443Z,12.53
2022-11-24T06:30:20.888Z,14.67
2022-11-24T06:32:50.137Z,12.73
2022-11-24T06:35:18.722Z,16.10
2022-11-24T06:37:47.029Z,14.03
2022-11-24T06:40:15.481Z,16.70
2022-11-24T06:42:51.375Z,17.30
2022-11-24T06:45:19.644Z,17.33
2022-11-24T06:47:48.136Z,17.33
2022-11-24T06:50:16.915Z,16.83
2022-11-24T06:52:45.382Z,16.10
2022-11-24T06:55:13.830Z,16.10
2022-11-24T06:57:42.205Z,16.40
2022-11-24T07:00:13.632Z,13.43
2022-11-24T07:02:45.869Z,16.00
2022-11-24T07:05:14.807Z,18.93
2022-11-24T07:07:43.196Z,19.77
2022-11-24T07:10:11.589Z,17.50
2022-11-24T07:12:39.901Z,19.73
2022-11-24T07:15:09.751Z,20.80
2022-11-24T07:17:40.137Z,20.23
2022-11-24T07:20:09.785Z,22.57
2022-11-24T07:22:38.097Z,19.47
2022-11-24T07:25:09.920Z,17.47
2022-11-24T07:27:38.285Z,16.40
2022-11-24T07:30:07.659Z,15.20
2022-11-24T07:32:35.946Z,17.40
2022-11-24T07:35:06.797Z,21.00
2022-11-24T07:37:35.069Z,16.07
2022-11-24T07:40:03.373Z,19.90
2022-11-24T07:42:31.692Z,17.83
2022-11-24T07:44:59.993Z,16.77
2022-11-24T07:47:28.396Z,16.83
2022-11-24T07:49:56.683Z,18.13
2022-11-24T07:52:26.880Z,16.40
2022-11-24T07:54:55.218Z,18.47
2022-11-24T07:57:23.633Z,17.97
2022-11-24T07:59:52.144Z,15.80
2022-11-24T08:02:20.411Z,15.77
2022-11-24T08:04:48.753Z,14.43
2022-11-24T08:07:17.213Z,13.60
2022-11-24T08:09:47.172Z,15.30
2022-11-24T08:12:17.529Z,15.60
2022-11-24T08:14:46.127Z,13.20
2022-11-24T08:17:14.459Z,12.90
2022-11-24T08:19:42.935Z,12.47
2022-11-24T08:22:11.904Z,11.57
2022-11-24T08:24:46.348Z,13.53
2022-11-24T08:27:17.384Z,12.07
2022-11-24T08:29:46.086Z,14.57
2022-11-24T08:32:21.769Z,11.70
2022-11-24T08:34:50.474Z,10.97
2022-11-24T08:37:18.801Z,7.80
2022-11-24T08:39:47.289Z,9.67
2022-11-24T08:42:17.269Z,10.57
2022-11-24T08:44:45.626Z,9.57
2022-11-24T08:47:13.893Z,8.27
2022-11-24T08:49:43.369Z,10.20
2022-11-24T08:52:11.618Z,17.00
2022-11-24T08:54:40.930Z,18.20
2022-11-24T08:57:09.705Z,13.80
2022-11-24T08:59:39.437Z,15.70
2022-11-24T09:02:08.298Z,14.17
2022-11-24T09:04:37.097Z,13.00
2022-11-24T09:07:05.638Z,20.23
2022-11-24T09:09:33.879Z,19.67
2022-11-24T09:12:02.720Z,18.47
2022-11-24T09:14:31.542Z,16.03
2022-11-24T09:17:01.649Z,13.03
2022-11-24T09:19:29.932Z,11.40
2022-11-24T09:21:58.245Z,9.77
2022-11-24T09:24:26.816Z,8.97
2022-11-24T09:26:56.609Z,8.13
2022-11-24T09:29:25.142Z,7.37
2022-11-24T09:31:53.706Z,6.97
2022-11-24T09:34:23.989Z,8.33
2022-11-24T09:36:52.505Z,7.23
2022-11-24T09:39:20.879Z,7.60
2022-11-24T09:41:59.240Z,8.23
2022-11-24T09:44:57.358Z,7.87
2022-11-24T09:47:34.219Z,10.77
2022-11-24T09:50:05.837Z,11.40
2022-11-24T09:52:40.534Z,13.47
2022-11-24T09:55:28.805Z,11.43
2022-11-24T09:58:17.570Z,12.40
2022-11-24T10:00:47.391Z,12.50
2022-11-24T10:03:29.138Z,12.00
2022-11-24T10:05:59.503Z,12.17
2022-11-24T10:08:46.032Z,12.57
2022-11-24T10:11:16.193Z,12.90
2022-11-24T10:14:08.464Z,13.43
2022-11-24T10:16:45.909Z,12.07
2022-11-24T10:19:22.068Z,11.80
2022-11-24T10:22:04.306Z,12.50
2022-11-24T10:24:52.958Z,11.17
2022-11-24T10:27:24.178Z,10.87
2022-11-24T10:29:53.758Z,9.20
2022-11-24T10:32:25.595Z,10.07
2022-11-24T10:34:55.173Z,8.23
2022-11-24T10:37:29.045Z,8.37
2022-11-24T10:40:01.617Z,8.70
2022-11-24T10:42:31.575Z,7.80
2022-11-24T10:45:01.035Z,9.43
2022-11-24T10:47:30.420Z,8.73
2022-11-24T10:50:02.861Z,7.57
2022-11-24T10:52:36.162Z,9.40
2022-11-24T10:55:06.732Z,10.13
2022-11-24T10:57:36.994Z,9.20
2022-11-24T11:00:32.924Z,9.80
2022-11-24T11:03:18.876Z,7.87
2022-11-24T11:05:50.415Z,8.27
2022-11-24T11:08:30.631Z,8.10
2022-11-24T11:11:20.445Z,9.90
2022-11-24T11:14:01.605Z,9.70
2022-11-24T11:16:36.240Z,9.53
2022-11-24T11:19:26.043Z,7.80
2022-11-24T11:22:01.917Z,6.50
2022-11-24T11:24:32.123Z,6.13
2022-11-24T11:27:01.841Z,5.07
2022-11-24T11:35:13.361Z,7.33
2022-11-24T11:37:41.897Z,6.93
2022-11-24T11:40:17.916Z,8.20
2022-11-24T11:43:04.719Z,8.30
2022-11-24T11:45:36.988Z,8.57
2022-11-24T11:48:21.087Z,10.27
2022-11-24T11:51:21.576Z,7.97
2022-11-24T11:53:45.383Z,7.73
2022-11-24T11:56:23.087Z,7.87
2022-11-24T11:59:19.690Z,6.47
2022-11-24T12:02:18.097Z,6.53
2022-11-24T12:04:52.592Z,6.70
2022-11-24T12:07:42.231Z,6.90
2022-11-24T12:10:17.694Z,6.47
2022-11-24T12:13:15.098Z,7.03
2022-11-24T12:15:47.457Z,7.30
2022-11-24T12:18:55.974Z,6.80
2022-11-24T12:21:24.686Z,5.67
2022-11-24T12:24:05.174Z,5.37
2022-11-24T12:26:39.901Z,5.80
2022-11-24T12:29:27.403Z,4.93
2022-11-24T12:32:04.890Z,5.00
2022-11-24T12:34:40.568Z,4.20
2022-11-24T12:37:21.722Z,3.37
2022-11-24T12:39:54.323Z,4.07
2022-11-24T12:42:31.590Z,3.70
2022-11-24T12:45:16.652Z,2.77
2022-11-24T12:48:17.246Z,2.97
2022-11-24T12:50:47.330Z,2.67
2022-11-24T12:53:19.200Z,2.30
2022-11-24T12:55:48.179Z,2.30
2022-11-24T12:58:21.366Z,1.80
2022-11-24T13:01:04.512Z,1.90
2022-11-24T13:03:41.899Z,2.60
2022-11-24T13:06:14.841Z,2.27
2022-11-24T13:08:43.451Z,2.50
2022-11-24T13:11:35.749Z,2.80
2022-11-24T13:14:07.554Z,2.57
2022-11-24T13:17:13.512Z,2.80
2022-11-24T13:19:38.866Z,3.40
2022-11-24T13:22:18.711Z,4.03
2022-11-24T13:24:47.041Z,3.60
2022-11-24T13:27:31.033Z,2.90
2022-11-24T13:29:59.866Z,3.10
2022-11-24T13:33:02.861Z,3.13
2022-11-24T13:35:32.992Z,2.70
2022-11-24T13:38:01.269Z,2.80
2022-11-24T13:41:06.335Z,3.00
2022-11-24T13:43:35.634Z,3.50
2022-11-24T13:46:04.132Z,3.73
2022-11-24T13:48:57.434Z,3.67
2022-11-24T13:51:26.217Z,3.73
2022-11-24T13:53:56.606Z,4.60
2022-11-24T13:56:29.965Z,3.43
2022-11-24T13:59:00.516Z,3.03
2022-11-24T14:01:29.859Z,3.10
2022-11-24T14:04:30.605Z,2.83
2022-11-24T14:07:07.859Z,2.57
2022-11-24T14:09:40.798Z,3.00
2022-11-24T14:12:14.652Z,3.60
2022-11-24T14:14:44.172Z,3.07
2022-11-24T14:17:23.601Z,2.80
2022-11-24T14:19:54.942Z,3.40
2022-11-24T14:22:26.870Z,2.80
2022-11-24T14:24:58.144Z,4.00
2022-11-24T14:27:30.846Z,3.20
2022-11-24T14:30:00.748Z,3.10
2022-11-24T14:32:29.714Z,3.43
2022-11-24T14:34:59.471Z,3.00
2022-11-24T14:37:27.966Z,3.20
2022-11-24T14:39:56.260Z,3.90
2022-11-24T14:42:25.650Z,4.17
2022-11-24T14:44:56.467Z,4.20
2022-11-24T14:47:31.710Z,4.47
2022-11-24T14:50:12.146Z,3.80
2022-11-24T14:52:45.759Z,3.83
2022-11-24T14:55:25.871Z,3.80
2022-11-24T14:57:54.127Z,4.37
2022-11-24T15:00:28.606Z,3.73
2022-11-24T15:03:08.497Z,3.80
2022-11-24T15:08:35.271Z,4.40
2022-11-24T15:11:04.671Z,4.67
2022-11-24T15:13:37.221Z,4.00
2022-11-24T15:16:09.478Z,4.60
2022-11-24T15:18:42.272Z,5.00
2022-11-24T15:21:18.556Z,5.30
2022-11-24T15:24:07.705Z,6.87
2022-11-24T15:26:41.615Z,5.70
2022-11-24T15:29:10.875Z,6.97
2022-11-24T15:31:39.631Z,6.20
2022-11-24T15:34:08.497Z,7.23
2022-11-24T15:36:36.846Z,6.50
2022-11-24T15:39:06.560Z,6.97
2022-11-24T15:41:35.212Z,7.50
2022-11-24T15:44:03.562Z,6.53
2022-11-24T15:46:37.969Z,7.40
2022-11-24T15:49:07.353Z,6.93
2022-11-24T15:51:37.083Z,9.23
2022-11-24T15:54:07.369Z,14.40
2022-11-24T15:56:37.892Z,16.10
2022-11-24T15:59:06.238Z,16.40
2022-11-24T16:01:35.391Z,18.63
2022-11-24T16:04:04.063Z,19.37
2022-11-24T16:06:32.507Z,14.10
2022-11-24T16:09:01.044Z,18.13
2022-11-24T16:11:31.700Z,14.70
2022-11-24T16:14:00.331Z,16.00
2022-11-24T16:16:28.998Z,14.90
2022-11-24T16:19:00.562Z,11.70
2022-11-24T16:21:29.251Z,12.73
2022-11-24T16:23:58.892Z,18.17
2022-11-24T16:26:27.562Z,17.13
2022-11-24T16:28:57.559Z,14.77
2022-11-24T16:31:28.635Z,15.80
2022-11-24T16:33:57.284Z,6.70
2022-11-24T16:36:26.888Z,12.40
2022-11-24T16:38:55.950Z,7.67
2022-11-24T16:41:25.060Z,8.37
2022-11-24T16:43:54.231Z,8.50
2022-11-24T16:46:26.383Z,11.80
2022-11-24T16:48:59.793Z,12.50
2022-11-24T16:51:34.436Z,12.93
2022-11-24T16:54:05.794Z,14.30
2022-11-24T16:56:34.825Z,9.60
2022-11-24T16:59:03.887Z,11.30
2022-11-24T17:01:37.775Z,8.63
2022-11-24T17:04:12.402Z,9.90
2022-11-24T17:06:41.986Z,13.03
2022-11-24T17:09:11.628Z,7.80
2022-11-24T17:11:42.355Z,9.13
2022-11-24T17:14:12.194Z,6.80
2022-11-24T17:16:42.120Z,8.27
2022-11-24T17:19:11.166Z,9.60
2022-11-24T17:21:40.185Z,8.23
2022-11-24T17:24:15.294Z,9.30
2022-11-24T17:26:48.732Z,10.50
2022-11-24T17:29:19.974Z,10.37
2022-11-24T17:31:50.699Z,10.93
2022-11-24T17:34:20.317Z,11.17
2022-11-24T17:36:49.662Z,10.23
2022-11-24T17:39:24.588Z,9.00
2022-11-24T17:41:55.045Z,11.57
2022-11-24T17:44:28.249Z,7.90
2022-11-24T17:47:03.429Z,9.20
2022-11-24T17:49:33.996Z,9.47
2022-11-24T17:52:03.604Z,14.77
2022-11-24T17:54:56.886Z,9.93
2022-11-24T17:57:22.294Z,9.57
2022-11-24T17:59:52.604Z,8.93
2022-11-24T18:02:24.192Z,8.90
2022-11-24T18:04:53.668Z,9.60
2022-11-24T18:07:24.030Z,9.07
2022-11-24T18:09:56.463Z,9.17
2022-11-24T18:12:29.529Z,9.67
2022-11-24T18:14:59.781Z,9.43
2022-11-24T18:17:31.375Z,7.50
2022-11-24T18:20:04.125Z,8.50
2022-11-24T18:23:03.907Z,10.50
2022-11-24T18:25:24.035Z,8.87
2022-11-24T18:27:54.784Z,9.07
2022-11-24T18:30:24.928Z,10.00
2022-11-24T18:33:02.519Z,8.43
2022-11-24T18:35:33.258Z,8.47
2022-11-24T18:38:03.925Z,8.43
2022-11-24T18:40:43.025Z,9.50
2022-11-24T18:43:14.018Z,9.20
2022-11-24T18:45:44.732Z,9.13
2022-11-24T18:48:16.375Z,9.40
2022-11-24T18:50:47.022Z,10.13
2022-11-24T18:53:17.498Z,10.80
2022-11-24T18:55:57.351Z,8.60
2022-11-24T18:58:31.042Z,9.30
2022-11-24T19:01:08.849Z,9.63
2022-11-24T19:03:47.921Z,10.00
2022-11-24T19:06:20.346Z,9.50
2022-11-24T19:08:51.669Z,9.73
2022-11-24T19:11:25.198Z,10.83
2022-11-24T19:13:57.632Z,9.10
2022-11-24T19:16:27.638Z,10.97
2022-11-24T19:19:09.668Z,14.30
2022-11-24T19:21:40.727Z,12.40
2022-11-24T19:24:13.788Z,11.90
2022-11-24T19:26:44.038Z,10.67
2022-11-24T19:29:14.337Z,10.87
2022-11-24T19:31:46.679Z,12.17
2022-11-24T19:34:25.469Z,11.20
2022-11-24T19:36:56.514Z,9.07
2022-11-24T19:39:30.344Z,12.13
2022-11-24T19:42:01.596Z,9.40
2022-11-24T19:44:32.545Z,10.20
2022-11-24T19:47:02.764Z,9.33
2022-11-24T19:49:34.571Z,8.37
2022-11-24T19:52:06.316Z,7.80
2022-11-24T19:54:38.418Z,9.50
2022-11-24T19:57:09.015Z,10.10
2022-11-24T19:59:39.642Z,9.30
2022-11-24T20:02:10.021Z,8.30
2022-11-24T20:04:43.534Z,8.10
2022-11-24T20:07:14.376Z,9.60
2022-11-24T20:09:44.487Z,8.70
2022-11-24T20:12:15.055Z,9.60
2022-11-24T20:14:49.200Z,10.30
2022-11-24T20:17:20.902Z,10.67
2022-11-24T20:19:53.174Z,11.50
2022-11-24T20:22:23.086Z,10.20
2022-11-24T20:24:53.775Z,9.97
2022-11-24T20:27:25.641Z,11.90
2022-11-24T20:29:56.493Z,13.23
2022-11-24T20:32:26.556Z,13.83
2022-11-24T20:35:02.318Z,10.20
2022-11-24T20:40:22.067Z,10.70
2022-11-24T20:42:52.379Z,14.33
2022-11-24T20:45:23.886Z,13.60
2022-11-24T20:47:54.470Z,12.60
2022-11-24T20:50:27.085Z,11.53
2022-11-24T20:52:57.243Z,4.40
2022-11-24T20:55:27.337Z,5.40
2022-11-24T20:57:57.375Z,9.37
2022-11-24T21:00:30.064Z,4.10
2022-11-24T21:03:00.495Z,9.63
2022-11-24T21:05:31.225Z,10.47
2022-11-24T21:08:02.336Z,9.80
2022-11-24T21:10:32.184Z,9.30
2022-11-24T21:13:02.591Z,8.73
2022-11-24T21:15:31.151Z,10.33
2022-11-24T21:18:01.791Z,9.43
2022-11-24T21:20:31.630Z,9.20
2022-11-24T21:23:00.894Z,9.10
2022-11-24T21:25:29.633Z,8.23
2022-11-24T21:27:59.431Z,9.70
2022-11-24T21:30:29.349Z,8.53
2022-11-24T21:32:57.779Z,9.33
2022-11-24T21:35:26.578Z,8.17
2022-11-24T21:37:56.770Z,9.63
2022-11-24T21:40:25.189Z,8.63
2022-11-24T21:42:53.641Z,10.60
2022-11-24T21:45:22.148Z,11.20
2022-11-24T21:47:50.489Z,9.97
2022-11-24T21:50:18.895Z,9.30
2022-11-24T21:52:47.371Z,8.50
2022-11-24T21:55:17.192Z,8.00
2022-11-24T21:57:45.536Z,9.10
2022-11-24T22:00:15.345Z,9.77
2022-11-24T22:02:43.696Z,9.30
2022-11-24T22:05:11.964Z,10.60
2022-11-24T22:07:40.559Z,10.70
2022-11-24T22:10:10.380Z,9.93
2022-11-24T22:12:40.084Z,10.13
2022-11-24T22:15:09.018Z,11.10
2022-11-24T22:17:37.892Z,10.50
2022-11-24T22:20:07.702Z,10.10
2022-11-24T22:22:36.101Z,10.60
2022-11-24T22:25:04.518Z,9.80
2022-11-24T22:27:33.178Z,10.73
2022-11-24T22:30:05.024Z,18.47
2022-11-24T22:32:33.385Z,14.40
2022-11-24T22:35:01.678Z,14.43
2022-11-24T22:37:29.935Z,13.73
2022-11-24T22:39:58.271Z,15.37
2022-11-24T22:42:26.688Z,15.10
2022-11-24T22:44:54.919Z,14.77
2022-11-24T22:47:24.731Z,15.37
2022-11-24T22:49:53.010Z,16.27
2022-11-24T22:52:21.330Z,16.63
2022-11-24T22:54:49.680Z,16.23
2022-11-24T22:57:17.968Z,15.43
2022-11-24T22:59:46.417Z,16.43
2022-11-24T23:02:14.698Z,16.57
2022-11-24T23:04:44.333Z,14.00
2022-11-24T23:07:12.640Z,12.97
2022-11-24T23:09:41.211Z,16.33
2022-11-24T23:12:10.841Z,14.73
2022-11-24T23:14:39.062Z,14.90
2022-11-24T23:17:07.357Z,16.00
2022-11-24T23:19:35.659Z,14.00
2022-11-24T23:22:05.295Z,16.33
2022-11-24T23:24:37.890Z,14.60
2022-11-24T23:27:06.528Z,14.00
2022-11-24T23:29:34.842Z,12.20
2022-11-24T23:32:03.160Z,13.60
2022-11-24T23:34:31.560Z,13.00
2022-11-24T23:36:59.787Z,13.53
2022-11-24T23:39:29.436Z,14.57
2022-11-24T23:41:57.665Z,12.00
2022-11-24T23:44:25.928Z,10.67
2022-11-24T23:46:54.222Z,14.20
2022-11-24T23:49:22.443Z,11.73
2022-11-24T23:51:51.807Z,12.43
2022-11-24T23:57:06.859Z,12.57
2022-11-24T23:59:35.085Z,12.17
